Latest Weather Observations for Braidwood

IDN60901

Issued at 2:35 pm EST Saturday 2 August 2014 (issued every 10 minutes, with the page automatically refreshed every 10 minutes)

About weather observations | Map of Canberra area stations | Latest observations for Canberra area | Other Formats
Station Details ID: 069132 Name: BRAIDWOOD RACECOURSE AWS Lat: -35.43 Lon: 149.78 Height: 665.2 m
Data from the previous 72 hours. | See also: Recent months at Braidwood
Date/Time
EST
Tmp

°C
App
Tmp
°C
Dew
Point
°C
Rel
Hum
%
Delta-T

°C
Wind Press
QNH
hPa
Press
MSL
hPa
Rain
since
9 am
mm
Dir
 
Spd
km/h
Gust
km/h
Spd
kts
Gust
kts
02/02:30pm 7.9 4.3 -3.6 44 4.3 S 6 13 3 7 1025.8 - 0.0
02/02:00pm 8.6 4.9 -3.3 43 4.5 S 7 13 4 7 1025.6 1026.5 0.0
02/01:30pm 8.7 4.6 -2.9 44 4.5 SSE 9 15 5 8 1025.2 - 0.0
02/01:00pm 8.3 2.5 -4.5 40 4.7 S 17 30 9 16 1025.2 1026.2 0.0
02/12:30pm 8.1 2.0 -4.0 42 4.5 S 19 26 10 14 1025.4 - 0.0
02/12:00pm 8.2 2.1 -2.1 48 4.0 SSW 20 30 11 16 1025.5 1026.4 0.0
02/11:30am 7.2 1.1 -3.9 45 4.1 SW 19 28 10 15 1025.5 - 0.0
02/11:00am 7.1 0.5 -3.1 48 3.8 SSW 22 35 12 19 1025.4 1026.3 0.0
02/10:30am 6.9 0.0 -2.5 51 3.6 S 24 33 13 18 1025.0 - 0.0
02/10:00am 6.0 0.3 -3.4 51 3.5 SW 17 28 9 15 1024.9 1025.8 0.0
02/09:30am 5.0 0.1 -3.5 54 3.1 SW 13 20 7 11 1024.6 - 0.0
02/09:00am 4.1 -0.1 -3.9 56 2.8 SW 9 19 5 10 1024.5 1025.4 0.2
02/08:30am 3.3 -2.1 -4.4 57 2.7 SSW 15 28 8 15 1024.0 - 0.2
02/08:00am 2.1 -2.1 -4.2 63 2.3 WSW 9 13 5 7 1023.4 1024.3 0.2
02/07:30am 1.5 -2.8 -4.6 64 2.2 SSW 9 22 5 12 1022.6 - 0.2
02/07:00am -0.6 -4.3 -4.5 75 1.3 NE 6 9 3 5 1021.8 1022.7 0.2
02/06:30am -1.9 -5.7 -5.6 76 1.1 NW 6 9 3 5 1021.1 - 0.2
02/06:00am -0.9 -3.9 -4.8 75 1.2 N 2 4 1 2 1020.1 1020.9 0.2
02/05:30am -1.4 -5.2 -5.4 74 1.2 N 6 7 3 4 1019.7 - 0.2
02/05:00am -0.1 -4.0 -4.3 73 1.4 WSW 7 11 4 6 1019.0 1019.8 0.2
02/04:30am -1.1 -5.7 -4.1 80 1.0 NW 11 15 6 8 1018.7 - 0.2
02/04:00am -1.1 -4.0 -4.1 80 1.0 NNW 2 6 1 3 1018.4 1019.2 0.2
02/03:30am -0.3 -4.2 -4.5 73 1.4 NW 7 13 4 7 1017.7 - 0.2
02/03:00am 1.0 -3.6 -3.7 71 1.7 W 11 19 6 10 1017.2 1018.0 0.2
02/02:30am 1.0 -4.6 -3.3 73 1.6 WNW 17 20 9 11 1017.0 - 0.2
02/02:00am 1.1 -3.8 -3.6 71 1.7 W 13 19 7 10 1016.4 1017.2 0.2
02/01:30am 1.2 -3.0 -3.5 71 1.7 W 9 17 5 9 1016.1 - 0.2
02/01:00am 2.5 -2.7 -3.0 67 2.0 WNW 15 20 8 11 1015.4 1016.2 0.2
02/12:30am 0.9 -4.0 -3.4 73 1.6 WNW 13 19 7 10 1015.2 - 0.2
02/12:00am 1.2 -4.7 -2.4 77 1.4 WNW 19 24 10 13 1014.6 1015.3 0.2
 
Date/Time
EST
Tmp

°C
App
Tmp
°C
Dew
Point
°C
Rel
Hum
%
Delta-T

°C
Wind Press
QNH
hPa
Press
MSL
hPa
Rain
since
9 am
mm
Dir
 
Spd
km/h
Gust
km/h
Spd
kts
Gust
kts
01/11:30pm 0.2 -3.2 -1.9 86 0.8 NNW 6 9 3 5 1014.5 - 0.2
01/11:00pm 0.6 -2.0 -1.8 84 0.9 N 2 7 1 4 1014.4 1015.1 0.2
01/10:30pm 1.5 -2.4 -1.2 82 1.0 NW 9 13 5 7 1013.9 - 0.2
01/10:00pm 1.4 -3.6 -1.2 83 1.0 WNW 15 20 8 11 1013.5 1014.2 0.2
01/09:30pm 1.6 -2.7 -1.6 79 1.2 W 11 17 6 9 1013.1 - 0.2
01/09:00pm 2.0 -3.4 -1.2 79 1.2 NW 17 24 9 13 1012.2 1012.9 0.2
01/08:30pm 2.0 -3.4 -1.2 79 1.2 NNW 17 28 9 15 1011.5 - 0.2
01/08:00pm 3.1 -3.7 -1.6 71 1.8 NW 24 39 13 21 1011.6 1012.3 0.2
01/07:30pm 2.9 -2.5 -1.5 73 1.6 WNW 17 26 9 14 1012.0 - 0.2
01/07:00pm 2.7 0.3 -0.4 80 1.2 ENE 2 7 1 4 1011.7 1012.4 0.2
01/06:30pm 2.0 -1.2 -0.7 82 1.0 NNW 6 13 3 7 1011.0 - 0.2
01/06:00pm 2.3 -2.2 -0.6 81 1.1 NW 13 24 7 13 1009.9 1010.5 0.2
01/05:30pm 2.8 -4.2 -0.3 80 1.2 NW 26 39 14 21 1009.0 - 0.2
01/05:00pm 2.4 -4.9 0.1 85 0.9 NW 28 44 15 24 1008.7 1009.4 0.2
01/04:32pm 2.5 -5.7 0.6 87 0.7 WNW 33 54 18 29 1008.3 - 0.2
01/04:30pm 2.5 -6.1 0.4 86 0.8 WNW 35 54 19 29 1008.2 - 0.2
01/04:00pm 4.6 -6.0 -1.8 63 2.4 WNW 44 63 24 34 1006.9 1007.5 0.0
01/03:31pm 6.2 -3.4 -1.4 58 3.0 WNW 39 59 21 32 1006.7 - 0.0
01/03:30pm 6.2 -3.4 -1.2 59 2.9 WNW 39 56 21 30 1006.7 - 0.0
01/03:00pm 6.8 -2.9 -2.1 53 3.4 WNW 39 57 21 31 1006.0 1006.6 0.0
01/02:32pm 6.6 -3.1 -2.0 54 3.3 NW 39 61 21 33 1005.6 - 0.0
01/02:30pm 6.7 -2.5 -1.4 56 3.2 NW 37 56 20 30 1005.7 - 0.0
01/02:00pm 7.2 -3.2 -2.0 52 3.6 WNW 43 67 23 36 1005.3 1005.9 0.0
01/01:30pm 7.3 -2.3 -1.4 54 3.4 WNW 39 59 21 32 1005.5 - 0.0
01/01:00pm 7.4 -3.6 -2.3 50 3.8 WNW 46 69 25 37 1005.2 1005.8 0.0
01/12:37pm 7.2 -3.0 -3.3 47 3.9 WNW 41 65 22 35 1005.2 - 0.0
01/12:30pm 7.5 -2.6 -2.8 48 3.9 WNW 41 54 22 29 1005.3 - 0.0
01/12:02pm 7.6 -2.9 -2.4 49 3.9 WNW 43 63 23 34 1005.6 - 0.0
01/12:00pm 7.3 -3.4 -2.7 49 3.8 WNW 44 63 24 34 1005.6 1006.2 0.0
01/11:46am 7.0 -3.6 -3.0 49 3.8 WNW 43 63 23 34 1005.7 - 0.0
01/11:30am 6.8 -5.2 -4.0 46 4.0 WNW 50 67 27 36 1005.6 - 0.0
01/11:00am 6.8 -4.4 -4.0 46 4.0 WNW 46 70 25 38 1005.7 1006.3 0.0
01/10:35am 6.2 -4.7 -4.3 47 3.8 WNW 44 67 24 36 1005.9 - 0.0
01/10:30am 6.2 -4.5 -4.3 47 3.8 WNW 43 59 23 32 1006.0 - 0.0
01/10:00am 6.6 -3.5 -2.3 53 3.4 WNW 41 57 22 31 1006.4 1007.0 0.0
01/09:47am 6.1 -4.1 -3.3 51 3.5 WNW 41 59 22 32 1006.3 - 0.0
01/09:30am 6.1 -3.3 -3.0 52 3.4 WNW 37 56 20 30 1006.2 - 0.0
01/09:00am 6.3 -2.3 -2.3 54 3.3 W 33 52 18 28 1006.3 1007.1 0.0
01/08:43am 5.9 -2.7 -2.2 56 3.1 WNW 33 54 18 29 1006.0 - 0.0
01/08:30am 5.7 -2.6 -1.9 58 2.9 WNW 32 44 17 24 1005.9 - 0.0
01/08:16am 5.5 -3.0 -1.6 60 2.7 WNW 33 52 18 28 1005.7 - 0.0
01/08:00am 5.3 -2.9 -1.2 63 2.5 WNW 32 46 17 25 1005.5 1006.4 0.0
01/07:30am 5.3 -1.8 -1.4 62 2.6 WNW 26 43 14 23 1005.1 - 0.0
01/07:00am 5.7 -0.8 -2.4 56 3.1 WNW 22 32 12 17 1004.3 1005.2 0.0
01/06:30am 6.0 -0.4 -1.9 57 3.0 WNW 22 35 12 19 1003.9 - 0.0
01/06:00am 6.6 -1.7 -1.8 55 3.3 W 32 54 17 29 1003.8 1004.7 0.0
01/05:47am 7.2 -1.1 -1.5 54 3.4 W 32 52 17 28 1003.5 - 0.0
01/05:30am 7.3 -0.7 1.4 66 2.5 W 33 48 18 26 1003.6 - 0.0
01/05:12am 8.0 0.7 2.3 67 2.5 WNW 30 54 16 29 1003.2 - 0.0
01/05:00am 8.1 1.5 2.1 66 2.6 WNW 26 39 14 21 1002.7 1003.6 0.0
01/04:30am 8.3 1.8 2.5 67 2.5 WNW 26 43 14 23 1002.4 - 0.0
01/04:00am 8.6 2.8 2.4 65 2.7 WNW 22 37 12 20 1002.4 1003.2 0.0
01/03:44am 9.2 1.9 2.5 63 3.0 NW 30 52 16 28 1002.0 - 0.0
01/03:30am 9.3 3.1 1.9 60 3.2 NW 24 35 13 19 1001.9 - 0.0
01/03:13am 9.6 2.5 1.5 57 3.5 NW 28 46 15 25 1001.7 - 0.0
01/03:00am 9.7 2.8 0.3 52 4.0 NW 26 50 14 27 1001.6 1002.4 0.0
01/02:56am 10.3 3.1 0.6 51 4.1 NW 28 50 15 27 1001.5 - 0.0
01/02:30am 10.5 3.4 -1.2 44 4.8 NW 26 43 14 23 1001.5 - 0.0
01/02:00am 11.1 3.9 -2.0 40 5.3 NW 26 43 14 23 1001.5 1002.3 0.0
01/01:30am 12.1 3.7 -2.1 37 5.8 NW 32 52 17 28 1001.4 - 0.0
01/01:00am 12.9 3.5 -2.6 34 6.3 NW 37 59 20 32 1001.2 1002.1 0.0
01/12:30am 13.2 5.5 -2.7 33 6.5 NW 28 46 15 25 1000.9 - 0.0
01/12:22am 13.3 5.6 -2.6 33 6.5 NW 28 48 15 26 1000.9 - 0.0
01/12:00am 12.6 6.5 -2.4 35 6.1 NNW 20 37 11 20 1001.2 1002.1 0.0
 
Date/Time
EST
Tmp

°C
App
Tmp
°C
Dew
Point
°C
Rel
Hum
%
Delta-T

°C
Wind Press
QNH
hPa
Press
MSL
hPa
Rain
since
9 am
mm
Dir
 
Spd
km/h
Gust
km/h
Spd
kts
Gust
kts
31/11:30pm 12.3 6.5 -1.6 38 5.7 NNW 19 32 10 17 1001.7 - 0.0
31/11:00pm 12.6 6.7 -1.0 39 5.8 NNW 20 35 11 19 1002.1 1002.9 0.0
31/10:30pm 12.6 4.3 -0.6 40 5.6 NW 33 59 18 32 1002.3 - 0.0
31/10:00pm 12.0 4.8 0.5 45 5.0 NNW 28 50 15 27 1002.5 1003.4 0.0
31/09:51pm 12.4 5.2 0.5 44 5.2 NW 28 52 15 28 1002.5 - 0.0
31/09:30pm 11.8 6.2 1.2 48 4.6 NNW 20 43 11 23 1003.0 - 0.0
31/09:00pm 12.2 6.7 1.8 49 4.7 NW 20 46 11 25 1003.1 1003.9 0.0
31/08:30pm 12.2 6.4 2.4 51 4.4 NNW 22 48 12 26 1002.6 - 0.0
31/08:00pm 12.3 6.6 3.0 53 4.3 NNW 22 39 12 21 1002.1 1002.9 0.0
31/07:30pm 12.8 6.8 3.2 52 4.4 NNW 24 46 13 25 1002.5 - 0.0
31/07:00pm 13.0 5.8 2.8 50 4.7 NNW 30 50 16 27 1002.3 1003.1 0.0
31/06:54pm 13.1 6.2 2.6 49 4.8 NNW 28 50 15 27 1002.1 - 0.0
31/06:30pm 13.1 7.3 2.4 48 4.9 NNW 22 52 12 28 1001.9 - 0.0
31/06:00pm 13.4 7.6 2.3 47 5.1 NNW 22 50 12 27 1002.0 1002.8 0.0
31/05:32pm 13.4 6.4 2.0 46 5.2 NNW 28 50 15 27 1002.3 - 0.0
31/05:30pm 13.4 6.8 2.0 46 5.2 NNW 26 50 14 27 1002.3 - 0.0
31/05:28pm 13.6 6.6 2.2 46 5.2 NNW 28 50 15 27 1002.2 - 0.0
31/05:00pm 13.9 6.9 1.9 44 5.5 NNW 28 44 15 24 1002.5 1003.4 0.0
31/04:30pm 14.6 7.2 1.8 42 5.8 NW 30 50 16 27 1002.7 - 0.0
31/04:05pm 14.9 7.2 2.1 42 5.9 NW 32 56 17 30 1003.1 - 0.0
31/04:00pm 14.9 7.2 2.1 42 5.9 NW 32 48 17 26 1003.2 1004.0 0.0
31/03:30pm 15.1 5.4 0.2 36 6.6 NW 41 65 22 35 1003.8 - 0.0
31/03:00pm 15.7 7.5 0.3 35 6.9 NW 33 59 18 32 1003.9 1004.8 0.0
31/02:30pm 15.7 7.2 1.1 37 6.6 NW 35 59 19 32 1004.1 - 0.0
31/02:00pm 15.5 7.1 1.6 39 6.4 NW 35 57 19 31 1004.2 1005.1 0.0
31/01:30pm 15.7 6.3 2.2 40 6.2 NW 41 72 22 39 1004.9 - 0.0
31/01:00pm 15.4 6.7 1.9 40 6.2 NW 37 65 20 35 1005.2 1006.1 0.0
31/12:30pm 14.9 5.3 1.1 39 6.2 NW 41 74 22 40 1005.8 - 0.0
31/12:00pm 15.4 7.1 2.2 41 6.1 NW 35 78 19 42 1006.9 1007.8 0.0
31/11:30am 15.1 7.9 3.0 44 5.7 NW 30 65 16 35 1007.6 - 0.0
31/11:00am 14.5 6.9 2.7 45 5.5 NW 32 52 17 28 1008.1 1009.0 0.0
31/10:49am 14.4 7.5 2.6 45 5.4 NW 28 46 15 25 1008.2 - 0.0
31/10:30am 14.0 7.5 2.6 46 5.2 NW 26 43 14 23 1008.7 - 0.0
31/10:06am 13.4 6.5 2.3 47 5.0 NNW 28 48 15 26 1009.0 - 0.0
31/10:00am 13.4 7.3 2.9 49 4.9 NW 24 46 13 25 1009.2 1010.2 0.0
31/09:44am 12.9 6.0 2.7 50 4.7 NW 28 50 15 27 1009.5 - 0.0
31/09:30am 12.6 6.5 2.7 51 4.5 NNW 24 46 13 25 1009.7 - 0.0
31/09:00am 11.6 5.9 3.1 56 3.9 NNW 22 46 12 25 1010.0 1010.9 0.0
31/08:30am 10.9 5.7 3.5 60 3.4 NNW 20 35 11 19 1010.3 - 0.0
31/08:00am 9.4 5.6 3.8 68 2.6 NNW 13 26 7 14 1010.4 1011.4 0.0
31/07:30am 8.0 4.2 3.8 75 1.9 NNW 13 24 7 13 1010.6 - 0.0
31/07:00am 7.9 3.8 4.1 77 1.7 NNW 15 30 8 16 1010.8 1011.8 0.0
31/06:30am 7.6 4.2 3.8 77 1.7 NNW 11 22 6 12 1011.2 - 0.0
31/06:00am 8.0 3.8 4.0 76 1.8 NNW 15 24 8 13 1011.1 1012.0 0.0
31/05:30am 8.2 3.7 4.2 76 1.8 NW 17 28 9 15 1011.2 - 0.0
31/05:00am 8.2 3.7 4.4 77 1.7 NNW 17 32 9 17 1011.2 1012.1 0.0
31/04:30am 8.2 3.8 4.6 78 1.7 NNW 17 30 9 16 1011.2 - 0.0
31/04:00am 8.0 4.7 4.6 79 1.6 NNW 11 22 6 12 1011.7 1012.7 0.0
31/03:30am 8.6 5.0 4.8 77 1.8 NNW 13 24 7 13 1011.8 - 0.0
31/03:00am 9.2 5.6 5.2 76 1.9 NNW 13 24 7 13 1012.1 1013.1 0.0
31/02:30am 9.6 5.8 5.6 76 1.9 NNW 15 28 8 15 1012.6 - 0.0
31/02:00am 9.8 5.6 5.6 75 2.0 NNW 17 28 9 15 1012.7 1013.7 0.0
31/01:30am 10.2 5.1 5.8 74 2.1 NW 22 33 12 18 1012.7 - 0.0
31/01:00am 10.1 5.4 5.9 75 2.0 NNW 20 39 11 21 1012.9 1013.9 0.0
31/12:30am 10.3 5.6 6.1 75 2.0 NNW 20 41 11 22 1013.3 - 0.0
31/12:00am 10.5 6.1 6.5 76 1.9 NNW 19 35 10 19 1013.7 1014.7 0.0
 
Date/Time
EST
Tmp

°C
App
Tmp
°C
Dew
Point
°C
Rel
Hum
%
Delta-T

°C
Wind Press
QNH
hPa
Press
MSL
hPa
Rain
since
9 am
mm
Dir
 
Spd
km/h
Gust
km/h
Spd
kts
Gust
kts
30/11:30pm 10.7 6.7 6.6 76 2.0 NNW 17 30 9 16 1013.9 - 0.0
30/11:00pm 11.0 6.6 6.7 75 2.1 NNW 19 35 10 19 1014.5 1015.5 0.0
30/10:30pm 11.2 6.9 6.9 75 2.1 NNW 19 32 10 17 1014.6 - 0.0
30/10:00pm 11.3 6.8 7.0 75 2.1 NW 20 30 11 16 1014.8 1015.8 0.0
30/09:30pm 11.6 7.3 7.1 74 2.2 NW 19 26 10 14 1015.1 - 0.0
30/09:00pm 11.5 8.9 7.6 77 2.0 N 11 20 6 11 1015.2 1016.3 0.0
30/08:30pm 11.5 8.8 7.4 76 2.1 NNW 11 19 6 10 1015.2 - 0.0
30/08:00pm 11.1 8.6 6.6 74 2.2 NNW 9 22 5 12 1015.5 1016.6 0.0
30/07:30pm 11.8 9.3 6.5 70 2.6 NNW 9 22 5 12 1015.4 - 0.0
30/07:00pm 11.7 8.8 6.6 71 2.5 NNW 11 28 6 15 1015.1 1016.1 0.0
30/06:30pm 12.0 8.0 6.7 70 2.6 NW 17 33 9 18 1015.1 - 0.0
30/06:00pm 11.8 9.0 6.9 72 2.4 NNW 11 19 6 10 1014.9 1015.9 0.0
30/05:30pm 11.8 9.0 6.9 72 2.4 NNW 11 17 6 9 1014.6 - 0.0
30/05:00pm 12.1 7.8 6.8 70 2.6 NW 19 30 10 16 1014.6 1015.6 0.0
30/04:30pm 12.4 8.0 6.7 68 2.8 NW 19 32 10 17 1014.5 - 0.0
30/04:00pm 12.4 8.4 6.7 68 2.8 NNW 17 32 9 17 1014.4 1015.4 0.0
30/03:30pm 12.5 7.9 6.5 67 3.0 NW 20 33 11 18 1014.4 - 0.0
30/03:00pm 13.5 8.4 7.5 67 3.0 NW 24 41 13 22 1014.2 1015.2 0.0

Latest Capital City Observations: Canberra | Sydney | Melbourne | Brisbane | Adelaide | Perth | Hobart | Darwin

Other Formats:

Comma delimited format used in spreadsheet applications
http://www.bom.gov.au/fwo/IDN60903/IDN60903.94927.axf

JavaScript Object Notation format (JSON) in row-major order
http://www.bom.gov.au/fwo/IDN60903/IDN60903.94927.json